St. George, Utah Weather observations

Data are for observation ending at time listed.
 Day   Time    Ave.   Ave.  Ave.  Vector   Max.   Stn.    Total    Solar   Ave.  
  of    of     Air    Rel.  Wind   Wind    Wind   Baro.  Precip.   Rad.    Soil  
Year   Day     Temp.  Hum.  Speed  Dir.    Gust   Pres.                    Temp. 
2017   (MST)    F      %     mph   deg.    mph     mb.     in.     W/m2     F   
------------------------------------------------------------------------------
  19    5:30   43.0    78    0.1   149      1.1   914.8    0.00       0    48.0
  19    5:40   42.8    80    1.1    91      4.5   914.7    0.01       0    48.0
  19    5:50   42.5    80    2.6    59      6.8   914.6    0.00       0    48.0
  19    6:00   42.5    79    3.5    54      7.2   914.6    0.00       0    48.0
  19    6:10   42.4    80    2.4    49      6.1   914.7    0.00       0    47.9
  19    6:20   42.3    80    1.8    38      3.9   914.6    0.00       0    47.9
  19    6:30   42.3    80    2.1    64      4.6   914.6    0.00       0    47.9
  19    6:40   42.5    79    2.4    73      5.1   914.7    0.00       0    47.9
  19    6:50   42.4    80    2.0    80      4.5   914.5    0.00       0    47.8
  19    7:00   42.2    81    2.8    71      6.9   914.5    0.00       0    47.8
  19    7:10   42.0    81    3.2    72      6.7   914.6    0.00       0    47.8
  19    7:20   41.9    81    3.8    64      9.1   914.7    0.01       0    47.8
  19    7:30   41.8    81    3.8    60      6.9   914.6    0.00       0    47.8
  19    7:40   41.7    82    3.0    61      5.7   914.6    0.00       0    47.7
  19    7:50   41.6    83    3.9    59      6.5   914.5    0.00       0    47.7
  19    8:00   41.5    84    3.8    64      7.6   914.5    0.00       3    47.7
  19    8:10   41.5    85    3.4    53      7.2   914.4    0.00       3    47.7
  19    8:20   41.6    85    4.0    53      9.1   914.5    0.00       3    47.6
  19    8:30   41.7    85    4.6    57      8.1   914.5    0.00       8    47.6
  19    8:40   41.6    86    4.2    56      8.8   914.5    0.00      13    47.6
  19    8:50   41.4    86    4.1    52      8.8   914.5    0.00      17    47.6
  19    9:00   41.5    87    3.7    59      8.1   914.5    0.00      13    47.5
  19    9:10   41.9    86    3.0    69      5.9   914.4    0.00      20    47.5
  19    9:20   42.1    86    3.2    73      6.2   914.4    0.00      19    47.5
  19    9:30   42.2    85    1.9    67      5.1   914.4    0.00      22    47.5
  19    9:40   42.4    86    0.5   141      1.8   914.5    0.01      17    47.4
  19    9:50   42.3    87    1.2   210      2.6   914.6    0.00      17    47.4
  19   10:00   42.3    88    0.3   224      1.6   914.5    0.01      22    47.4
  19   10:10   42.4    89    0.3   312      1.6   914.5    0.02      28    47.4
  19   10:20   42.4    89    0.3    37      1.3   914.4    0.00      27    47.4
  19   10:30   42.3    89    1.0   269      2.7   914.3    0.01      35    47.3
  19   10:40   42.3    89    0.8   280      3.1   914.3    0.01      38    47.3
  19   10:50   42.3    89    1.5   201      2.8   914.3    0.00      39    47.3
  19   11:00   42.5    90    1.6   202      3.5   914.4    0.00      46    47.3
  19   11:10   42.6    90    0.9   226      2.8   914.4    0.01      68    47.3
  19   11:20   42.7    90    1.3   200      2.4   914.4    0.00      87    47.3
  19   11:30   43.0    90    0.4   296      1.8   914.1    0.01     102    47.3
  19   11:40   43.2    89    0.4   354      1.8   913.9    0.00     118    47.3
  19   11:50   43.2    89    0.5   333      1.8   913.7    0.00     101    47.3
  19   12:00   43.3    89    0.8   175      2.0   913.5    0.00      71    47.3
  19   12:10   43.1    89    1.4   190      2.3   913.3    0.00      60    47.3
  19   12:20   43.0    89    0.6   182      1.9   913.1    0.00      79    47.3
  19   12:30   43.2    89    1.3   151      2.9   912.8    0.00      87    47.3
  19   12:40   43.1    89    1.6   194      3.7   912.7    0.00      64    47.3
  19   12:50   43.0    89    1.2   184      3.6   912.5    0.00      65    47.3
  19   13:00   43.1    89    1.0    97      2.3   912.2    0.00      84    47.3
  19   13:10   43.3    88    0.7    88      2.3   912.0    0.01      93    47.4
  19   13:20   43.8    86    1.1    78      4.2   911.7    0.00     163    47.4
  19   13:30   44.2    85    1.7    52      4.7   911.5    0.00     202    47.4
  19   13:40   44.7    84    1.8    93      3.9   911.3    0.00     210    47.4
  19   13:50   44.9    82    1.5    84      3.5   911.2    0.00     127    47.4
  19   14:00   44.7    81    1.4   114      3.7   911.1    0.00      72    47.4
  19   14:10   44.6    81    2.4    92      4.8   910.9    0.00     114    47.5
  19   14:20   44.7    82    1.7    91      3.9   910.8    0.00     109    47.5
  19   14:30   44.8    83    1.7    86      3.3   910.8    0.00     132    47.5
  19   14:40   44.8    84    1.7    95      3.4   910.7    0.00     113    47.6
  19   14:50   44.5    84    1.6    89      3.4   910.7    0.00     104    47.6
  19   15:00   44.4    84    1.4   108      3.1   910.7    0.00      58    47.6
  19   15:10   44.5    85    0.8   119      2.6   910.7    0.00      49    47.7
  19   15:20   44.0    85    2.0   134      3.3   910.6    0.01      53    47.7
  19   15:30   44.0    86    1.7   128      3.1   910.6    0.00      55    47.7
  19   15:40   43.8    86    1.2   138      2.6   910.6    0.00      33    47.8
  19   15:50   43.6    87    1.4   131      2.7   910.5    0.00      36    47.8
  19   16:00   43.7    87    1.0   137      2.7   910.5    0.00      28    47.8
  19   16:10   43.5    87    1.8    81      3.1   910.4    0.00      43    47.8
  19   16:20   43.6    87    0.4    82      1.5   910.4    0.01      54    47.9
  19   16:30   43.7    87    0.8    86      2.1   910.4    0.00      39    47.9
  19   16:40   43.8    87    0.7   108      1.6   910.4    0.00      30    47.9
  19   16:50   43.8    87    0.4   161      1.3   910.4    0.00      22    47.9
  19   17:00   43.9    88    1.2   249      2.0   910.6    0.00      15    47.9
  19   17:10   43.8    89    0.5   265      1.5   910.6    0.01      10    47.9
  19   17:20   43.9    89    0.7   282      2.4   910.7    0.00       9    47.9
  19   17:30   43.7    90    0.8   269      2.0   910.7    0.00       5    47.9
  19   17:40   43.6    90    0.7   265      2.0   910.7    0.01       3    47.9
  19   17:50   43.3    90    2.1   298      6.0   910.7    0.01       3    47.9
  19   18:00   43.0    90    2.0   318      3.4   910.6    0.00       3    47.9
  19   18:10   42.9    90    1.6   309      3.1   910.7    0.00       1    47.9
  19   18:20   43.0    90    0.9   309      1.8   910.7    0.00       0    47.9
  19   18:30   43.0    90    0.6   298      1.7   910.7    0.00       0    47.9
  19   18:40   43.2    90    0.5   209      1.5   910.7    0.00       0    47.9
  19   18:50   43.3    90    0.7   212      1.7   910.7    0.01       0    47.9
  19   19:00   43.3    90    1.2   213      2.9   910.8    0.00       0    47.9
  19   19:10   43.2    90    0.6   205      2.0   910.8    0.00       0    47.9
  19   19:20   43.1    90    1.6   193      2.9   910.7    0.00       0    47.9
  19   19:30   42.9    90    2.4   194      3.7   910.7    0.00       0    47.9
  19   19:40   42.8    91    2.3   196      4.2   910.6    0.00       0    47.8
  19   19:50   42.3    91    2.4   180      4.5   910.5    0.00       0    47.8
  19   20:00   42.3    91    2.8   206      4.5   910.5    0.01       0    47.8
  19   20:10   41.8    91    1.5   218      3.0   910.5    0.02       0    47.8
  19   20:20   41.5    91    1.8   220      3.8   910.5    0.04       0    47.8
  19   20:30   41.2    92    1.5   242      3.2   910.6    0.03       0    47.8
  19   20:40   41.0    92    1.3   266      3.3   910.6    0.02       0    47.8
  19   20:50   40.7    91    3.8   297     12.8   910.8    0.00       0    47.7
  19   21:00   39.9    90    2.8   284      7.5   910.8    0.02       0    47.7
  19   21:10   40.0    91    2.8   168      5.9   910.4    0.02       0    47.7
  19   21:20   39.8    91    2.8   194      7.5   910.2    0.00       0    47.7
  19   21:30   39.7    90    1.0   223      4.9   910.4    0.00       0    47.6
  19   21:40   39.8    91    0.5   299      1.5   910.5    0.00       0    47.6
  19   21:50   40.0    91    0.5   190      2.5   910.5    0.00       0    47.5
  19   22:00   40.2    91    0.7   252      2.3   910.5    0.00       0    47.5
  19   22:10   40.2    91    2.0   245      4.2   910.7    0.00       0    47.5
  19   22:20   40.2    91    0.8   280      2.7   910.7    0.00       0    47.4
  19   22:30   40.2    92    1.2   316      2.3   910.6    0.00       0    47.4
  19   22:40   40.1    92    1.2   321      2.9   910.6    0.00       0    47.4
  19   22:50   40.0    91    0.1   320      0.8   910.6    0.00       0    47.4
  19   23:00   39.8    91    1.0    26      2.0   910.6    0.00       0    47.3
  19   23:10   39.9    91    0.3   345      1.7   910.8    0.00       0    47.3
  19   23:20   40.0    91    1.1    18      3.4   910.8    0.00       0    47.3
  19   23:30   39.9    90    1.1    49      3.3   910.8    0.00       0    47.2
  19   23:40   40.0    90    1.5    67      2.5   910.8    0.00       0    47.2
  19   23:50   40.1    91    0.6    97      1.6   910.9    0.00       0    47.2
  20    0:00   40.1    91    0.3   155      1.3   910.8    0.00       0    47.2
  20    0:10   39.9    91    0.1   167      0.8   910.6    0.00       0    47.1
  20    0:20   39.7    91    0.2    35      0.9   910.4    0.00       0    47.1
  20    0:30   39.6    92    0.2   276      0.9   910.3    0.00       0    47.1
  20    0:40   39.5    92    0.2   217      0.9   910.3    0.00       0    47.0
  20    0:50   39.5    92    0.7    16      1.8   910.2    0.00       0    47.0
  20    1:00   39.4    92    1.6    19      3.6   910.1    0.00       0    47.0
  20    1:10   39.5    92    1.1   355      3.3   910.1    0.00       0    47.0
  20    1:20   39.4    91    1.0   317      2.3   910.0    0.00       0    46.9
  20    1:30   39.5    91    0.4   228      1.3   910.1    0.00       0    46.9
  20    1:40   39.4    91    0.6    49      2.5   910.0    0.00       0    46.9
  20    1:50   39.3    90    1.7    43      3.6   909.8    0.00       0    46.9
  20    2:00   39.3    90    0.0   267      0.4   909.9    0.00       0    46.8
  20    2:10   39.5    90    1.3   147      2.6   909.9    0.00       0    46.8
  20    2:20   39.4    90    0.7    83      2.9   909.8    0.00       0    46.8
  20    2:30   39.4    90    0.8    62      2.4   909.6    0.00       0    46.8
  20    2:40   39.4    90    0.5   119      1.9   909.6    0.00       0    46.7
  20    2:50   39.4    90    0.7   122      2.0   909.5    0.00       0    46.7
  20    3:00   39.4    90    0.4   123      1.6   909.6    0.00       0    46.7
  20    3:10   39.4    90    0.4   123      1.7   909.5    0.00       0    46.7
  20    3:20   39.4    90    0.0     0      0.0   909.5    0.00       0    46.7
  20    3:30   39.5    91    0.7   237      1.8   909.5    0.01       0    46.7
  20    3:40   39.4    91    0.3   286      1.6   909.4    0.00       0    46.6
  20    3:50   39.5    91    0.0   296      0.1   909.5    0.00       0    46.6
  20    4:00   39.5    91    0.8   296      1.5   909.5    0.00       0    46.6
  20    4:10   39.5    91    1.5   342      3.1   909.4    0.00       0    46.6
  20    4:20   39.4    91    1.7    26      4.1   909.3    0.00       0    46.6
  20    4:30   39.4    90    1.3    20      3.7   909.2    0.00       0    46.5
  20    4:40   39.4    90    1.2    66      2.9   909.2    0.00       0    46.5
  20    4:50   39.5    89    1.1   111      2.4   909.4    0.00       0    46.5
  20    5:00   39.4    89    1.9    86      3.3   909.3    0.00       0    46.5
  20    5:10   39.3    89    1.9    56      3.6   908.9    0.00       0    46.5
  20    5:20   39.3    89    1.8   118      3.7   909.0    0.00       0    46.5

Return to St. George, Utah graphs page.


Western Regional Climate Center,wrcc@dri.edu